createdAt,value
2023-02-24T00:01:37.797Z,9.49
2023-02-24T00:04:08.321Z,9.41
2023-02-24T00:06:40.110Z,9.34
2023-02-24T00:09:09.996Z,9.35
2023-02-24T00:11:39.149Z,9.33
2023-02-24T00:14:09.282Z,9.40
2023-02-24T00:16:38.131Z,9.41
2023-02-24T00:19:07.386Z,9.38
2023-02-24T00:21:36.716Z,9.39
2023-02-24T00:24:04.431Z,9.33
2023-02-24T00:26:32.077Z,9.41
2023-02-24T00:29:03.324Z,9.19
2023-02-24T00:31:34.497Z,9.29
2023-02-24T00:34:03.394Z,9.30
2023-02-24T00:36:34.546Z,9.30
2023-02-24T00:39:09.149Z,9.35
2023-02-24T00:41:38.365Z,9.28
2023-02-24T00:44:09.099Z,9.26
2023-02-24T00:46:40.155Z,9.15
2023-02-24T00:49:10.507Z,9.18
2023-02-24T00:51:41.106Z,9.25
2023-02-24T00:54:10.209Z,9.10
2023-02-24T00:56:37.983Z,9.09
2023-02-24T00:59:05.641Z,9.04
2023-02-24T01:01:35.032Z,9.09
2023-02-24T01:04:11.336Z,9.11
2023-02-24T01:06:41.358Z,9.12
2023-02-24T01:09:12.005Z,9.14
2023-02-24T01:11:57.958Z,9.02
2023-02-24T01:14:28.305Z,9.06
2023-02-24T01:16:56.907Z,9.02
2023-02-24T01:19:31.359Z,8.98
2023-02-24T01:22:02.595Z,8.90
2023-02-24T01:24:33.159Z,8.90
2023-02-24T01:27:00.820Z,8.85
2023-02-24T01:29:29.036Z,8.80
2023-02-24T01:31:58.187Z,8.71
2023-02-24T01:34:28.693Z,8.67
2023-02-24T01:36:58.498Z,8.70
2023-02-24T01:39:26.162Z,8.67
2023-02-24T01:41:53.906Z,8.67
2023-02-24T01:45:04.106Z,8.63
2023-02-24T01:47:32.602Z,8.58
2023-02-24T01:50:02.981Z,8.59
2023-02-24T01:52:35.102Z,8.60
2023-02-24T01:55:08.311Z,8.58
2023-02-24T01:57:39.653Z,8.62
2023-02-24T02:00:11.849Z,8.42
2023-02-24T02:02:47.389Z,8.67
2023-02-24T02:05:16.799Z,8.64
2023-02-24T02:07:48.325Z,8.73
2023-02-24T02:10:18.723Z,8.78
2023-02-24T02:12:47.136Z,8.79
2023-02-24T02:15:20.140Z,8.78
2023-02-24T02:17:55.848Z,8.73
2023-02-24T02:20:53.750Z,8.76
2023-02-24T02:23:54.899Z,8.77
2023-02-24T02:26:47.270Z,8.74
2023-02-24T02:29:37.180Z,8.73
2023-02-24T02:32:25.189Z,8.75
2023-02-24T02:34:58.276Z,8.64
2023-02-24T02:37:33.326Z,8.78
2023-02-24T02:40:15.425Z,8.69
2023-02-24T02:42:47.624Z,8.68
2023-02-24T02:45:20.976Z,8.66
2023-02-24T02:47:53.783Z,8.61
2023-02-24T02:50:28.920Z,8.59
2023-02-24T02:52:59.350Z,8.59
2023-02-24T02:55:34.914Z,8.58
2023-02-24T02:58:04.872Z,8.43
2023-02-24T03:00:36.996Z,8.46
2023-02-24T03:03:08.599Z,8.47
2023-02-24T03:05:46.872Z,8.53
2023-02-24T03:08:18.125Z,8.50
2023-02-24T03:10:51.063Z,8.52
2023-02-24T03:13:22.242Z,8.53
2023-02-24T03:15:52.832Z,8.50
2023-02-24T03:18:28.938Z,8.52
2023-02-24T03:21:07.495Z,8.55
2023-02-24T03:23:38.715Z,8.56
2023-02-24T03:26:18.760Z,8.51
2023-02-24T03:28:59.181Z,8.39
2023-02-24T03:31:34.422Z,8.57
2023-02-24T03:34:08.193Z,8.58
2023-02-24T03:36:37.595Z,8.55
2023-02-24T03:39:11.325Z,8.51
2023-02-24T03:41:50.673Z,8.59
2023-02-24T03:44:18.949Z,8.61
2023-02-24T03:46:46.782Z,8.64
2023-02-24T03:49:17.221Z,8.52
2023-02-24T03:52:08.640Z,8.55
2023-02-24T03:55:01.094Z,8.59
2023-02-24T03:57:54.674Z,8.59
2023-02-24T04:00:36.755Z,8.55
2023-02-24T04:03:15.200Z,8.50
2023-02-24T04:05:48.200Z,8.48
2023-02-24T04:08:20.155Z,8.42
2023-02-24T04:10:55.513Z,8.41
2023-02-24T04:13:35.273Z,8.42
2023-02-24T04:16:16.907Z,8.39
2023-02-24T04:18:50.409Z,8.35
2023-02-24T04:21:22.071Z,8.28
2023-02-24T04:23:53.145Z,8.26
2023-02-24T04:26:22.455Z,8.26
2023-02-24T04:28:50.791Z,8.22
2023-02-24T04:31:21.804Z,8.20
2023-02-24T04:33:53.213Z,8.10
2023-02-24T04:36:27.206Z,8.12
2023-02-24T04:38:56.268Z,8.14
2023-02-24T04:41:24.636Z,8.16
2023-02-24T04:43:52.545Z,8.05
2023-02-24T04:46:21.005Z,8.11
2023-02-24T04:48:48.634Z,8.12
2023-02-24T04:51:16.655Z,8.10
2023-02-24T04:53:44.337Z,8.13
2023-02-24T04:56:13.327Z,8.12
2023-02-24T04:58:42.615Z,8.08
2023-02-24T05:01:11.651Z,7.93
2023-02-24T05:03:42.441Z,8.04
2023-02-24T05:06:15.909Z,8.03
2023-02-24T05:08:44.854Z,7.83
2023-02-24T05:11:16.870Z,7.87
2023-02-24T05:13:46.343Z,7.95
2023-02-24T05:16:16.959Z,7.95
2023-02-24T05:18:45.477Z,7.96
2023-02-24T05:21:32.879Z,7.89
2023-02-24T05:24:06.290Z,7.86
2023-02-24T05:26:37.452Z,7.88
2023-02-24T05:29:07.016Z,7.86
2023-02-24T05:31:36.888Z,7.82
2023-02-24T05:34:07.570Z,7.82
2023-02-24T05:36:39.037Z,7.83
2023-02-24T05:39:08.041Z,7.89
2023-02-24T05:41:39.277Z,7.72
2023-02-24T05:44:09.315Z,7.68
2023-02-24T05:46:38.710Z,7.54
2023-02-24T05:49:09.536Z,7.72
2023-02-24T05:51:39.082Z,7.71
2023-02-24T05:54:08.934Z,7.69
2023-02-24T05:56:40.177Z,7.68
2023-02-24T05:59:10.721Z,7.74
2023-02-24T06:01:41.309Z,7.73
2023-02-24T06:04:10.584Z,7.68
2023-02-24T06:06:39.830Z,7.69
2023-02-24T06:09:10.648Z,7.68
2023-02-24T06:11:41.560Z,7.67
2023-02-24T06:14:10.446Z,7.73
2023-02-24T06:16:40.730Z,7.76
2023-02-24T06:19:10.437Z,7.74
2023-02-24T06:21:41.192Z,7.70
2023-02-24T06:24:14.354Z,7.76
2023-02-24T06:26:44.243Z,7.73
2023-02-24T06:29:15.716Z,7.82
2023-02-24T06:31:43.983Z,7.82
2023-02-24T06:34:13.279Z,7.78
2023-02-24T06:36:43.018Z,7.86
2023-02-24T06:39:14.403Z,7.86
2023-02-24T06:41:43.494Z,7.96
2023-02-24T06:44:11.157Z,8.00
2023-02-24T06:46:38.780Z,7.98
2023-02-24T06:49:07.409Z,8.08
2023-02-24T06:51:34.993Z,8.11
2023-02-24T06:54:02.737Z,8.04
2023-02-24T06:56:32.350Z,8.10
2023-02-24T06:59:01.542Z,8.13
2023-02-24T07:01:29.950Z,8.17
2023-02-24T07:04:18.882Z,8.16
2023-02-24T07:06:49.399Z,8.33
2023-02-24T07:09:18.679Z,8.28
2023-02-24T07:11:51.952Z,8.39
2023-02-24T07:14:22.263Z,8.48
2023-02-24T07:16:54.052Z,8.49
2023-02-24T07:19:23.947Z,8.50
2023-02-24T07:21:52.670Z,8.50
2023-02-24T07:24:25.771Z,8.58
2023-02-24T07:26:57.967Z,8.71
2023-02-24T07:29:30.346Z,8.67
2023-02-24T07:32:01.398Z,8.64
2023-02-24T07:34:29.250Z,8.84
2023-02-24T07:36:57.595Z,8.93
2023-02-24T07:39:25.722Z,8.86
2023-02-24T07:41:59.836Z,8.97
2023-02-24T07:44:29.374Z,8.98
2023-02-24T07:46:59.091Z,9.01
2023-02-24T07:49:29.975Z,9.03
2023-02-24T07:51:58.061Z,9.00
2023-02-24T07:54:29.878Z,8.99
2023-02-24T07:56:59.489Z,9.06
2023-02-24T07:59:30.675Z,9.26
2023-02-24T08:01:58.539Z,9.34
2023-02-24T08:04:28.483Z,9.42
2023-02-24T08:06:58.787Z,9.43
2023-02-24T08:09:48.136Z,9.42
2023-02-24T08:12:18.731Z,9.46
2023-02-24T08:14:50.735Z,9.54
2023-02-24T08:17:19.941Z,9.50
2023-02-24T08:19:48.819Z,9.61
2023-02-24T08:22:20.383Z,9.46
2023-02-24T08:24:50.113Z,9.52
2023-02-24T08:27:20.039Z,9.53
2023-02-24T08:29:59.882Z,9.48
2023-02-24T08:32:33.576Z,9.59
2023-02-24T08:35:04.718Z,9.75
2023-02-24T08:37:40.409Z,9.85
2023-02-24T08:40:33.220Z,9.81
2023-02-24T08:43:16.042Z,9.85
2023-02-24T08:45:47.060Z,9.85
2023-02-24T08:48:32.182Z,10.07
2023-02-24T08:51:02.426Z,10.12
2023-02-24T08:53:31.597Z,10.23
2023-02-24T08:56:00.929Z,10.42
2023-02-24T08:58:28.573Z,10.27
2023-02-24T09:00:59.763Z,10.50
2023-02-24T09:03:29.467Z,10.42
2023-02-24T09:06:04.504Z,9.97
2023-02-24T09:08:34.707Z,9.99
2023-02-24T09:11:07.712Z,9.95
2023-02-24T09:13:37.364Z,9.86
2023-02-24T09:16:07.036Z,9.81
2023-02-24T09:18:39.190Z,9.86
2023-02-24T09:21:37.213Z,10.13
2023-02-24T09:24:07.650Z,10.35
2023-02-24T09:26:43.112Z,10.44
2023-02-24T09:29:33.506Z,10.87
2023-02-24T09:32:05.947Z,11.21
2023-02-24T09:34:35.261Z,11.10
2023-02-24T09:37:03.836Z,11.21
2023-02-24T09:39:55.398Z,11.27
2023-02-24T09:42:34.379Z,11.47
2023-02-24T09:45:11.277Z,11.62
2023-02-24T09:47:56.922Z,11.93
2023-02-24T09:51:02.231Z,11.71
2023-02-24T09:53:41.349Z,11.68
2023-02-24T09:56:17.619Z,11.87
2023-02-24T10:01:43.117Z,11.74
2023-02-24T10:04:28.698Z,11.59
2023-02-24T10:07:03.941Z,11.84
2023-02-24T10:09:35.332Z,11.50
2023-02-24T10:12:11.614Z,11.43
2023-02-24T10:14:51.295Z,11.64
2023-02-24T10:17:24.327Z,11.88
2023-02-24T10:20:00.114Z,11.78
2023-02-24T10:22:50.337Z,11.85
2023-02-24T10:25:36.095Z,11.63
2023-02-24T10:28:20.008Z,11.69
2023-02-24T10:31:03.968Z,11.79
2023-02-24T10:33:38.834Z,11.74
2023-02-24T10:36:11.529Z,11.72
2023-02-24T10:38:45.276Z,11.71
2023-02-24T10:41:15.486Z,12.04
2023-02-24T10:43:55.871Z,12.22
2023-02-24T10:46:41.177Z,12.39
2023-02-24T10:49:16.197Z,12.32
2023-02-24T10:51:53.064Z,12.42
2023-02-24T10:54:54.792Z,12.31
2023-02-24T10:57:38.288Z,12.30
2023-02-24T11:00:51.708Z,11.93
2023-02-24T11:03:35.731Z,12.08
2023-02-24T11:06:20.237Z,12.15
2023-02-24T11:09:18.736Z,12.18
2023-02-24T11:12:05.683Z,12.28
2023-02-24T11:15:05.997Z,12.36
2023-02-24T11:17:33.792Z,11.96
2023-02-24T11:20:10.760Z,12.22
2023-02-24T11:22:41.560Z,12.22
2023-02-24T11:25:24.832Z,12.33
2023-02-24T11:27:55.352Z,12.11
2023-02-24T11:30:32.784Z,12.10
2023-02-24T11:33:15.265Z,11.94
2023-02-24T11:35:54.741Z,11.99
2023-02-24T11:38:33.394Z,12.27
2023-02-24T11:41:09.469Z,12.28
2023-02-24T11:43:43.295Z,12.14
2023-02-24T11:46:16.060Z,12.11
2023-02-24T11:48:47.977Z,12.24
2023-02-24T11:51:21.003Z,12.23
2023-02-24T11:53:52.070Z,12.11
2023-02-24T11:56:26.198Z,12.28
2023-02-24T11:58:58.348Z,11.92
2023-02-24T12:01:31.002Z,12.15
2023-02-24T12:04:07.465Z,12.17
2023-02-24T12:06:42.339Z,12.07
2023-02-24T12:09:16.860Z,12.08
2023-02-24T12:11:54.859Z,11.72
2023-02-24T12:14:29.677Z,11.69
2023-02-24T12:17:04.255Z,11.56
2023-02-24T12:19:39.244Z,11.68
2023-02-24T12:22:14.786Z,11.64
2023-02-24T12:24:47.201Z,11.86
2023-02-24T12:27:25.868Z,12.02
2023-02-24T12:30:22.683Z,11.79
2023-02-24T12:32:59.348Z,12.43
2023-02-24T12:35:39.440Z,12.64
2023-02-24T12:38:22.346Z,12.55
2023-02-24T12:40:58.520Z,12.40
2023-02-24T12:43:36.393Z,12.41
2023-02-24T12:46:08.415Z,12.26
2023-02-24T12:48:59.962Z,12.22
2023-02-24T12:51:34.902Z,12.68
2023-02-24T12:54:13.440Z,13.27
2023-02-24T12:56:52.890Z,13.43
2023-02-24T12:59:27.323Z,13.53
2023-02-24T13:02:00.560Z,13.83
2023-02-24T13:04:40.116Z,13.99
2023-02-24T13:07:20.057Z,13.60
2023-02-24T13:09:55.034Z,13.27
2023-02-24T13:12:28.153Z,12.97
2023-02-24T13:14:57.405Z,12.96
2023-02-24T13:17:26.938Z,13.40
2023-02-24T13:19:56.693Z,13.92
2023-02-24T13:22:28.671Z,13.89
2023-02-24T13:25:15.309Z,14.38
2023-02-24T13:27:43.914Z,14.23
2023-02-24T13:30:30.314Z,13.71
2023-02-24T13:33:05.317Z,13.53
2023-02-24T13:35:36.316Z,13.50
2023-02-24T13:38:22.609Z,13.18
2023-02-24T13:40:50.703Z,13.18
2023-02-24T13:43:26.763Z,13.26
2023-02-24T13:46:01.379Z,13.44
2023-02-24T13:48:55.950Z,13.87
2023-02-24T13:51:56.987Z,13.78
2023-02-24T13:54:41.754Z,14.00
2023-02-24T13:57:40.434Z,13.79
2023-02-24T14:00:21.789Z,13.40
2023-02-24T14:02:53.315Z,13.23
2023-02-24T14:05:24.853Z,12.92
2023-02-24T14:07:54.080Z,12.75
2023-02-24T14:10:25.068Z,12.60
2023-02-24T14:13:09.016Z,12.50
2023-02-24T14:15:36.915Z,12.40
2023-02-24T14:18:06.893Z,12.26
2023-02-24T14:20:37.470Z,12.19
2023-02-24T14:23:22.078Z,12.03
2023-02-24T14:25:55.463Z,12.29
2023-02-24T14:28:25.913Z,12.21
2023-02-24T14:30:58.098Z,11.94
2023-02-24T14:33:31.140Z,12.09
2023-02-24T14:35:59.318Z,12.03
2023-02-24T14:38:32.631Z,12.16
2023-02-24T14:41:00.579Z,12.27
2023-02-24T14:43:28.296Z,12.13
2023-02-24T14:45:57.590Z,12.32
2023-02-24T14:48:28.681Z,12.37
2023-02-24T14:51:02.067Z,12.33
2023-02-24T14:53:32.400Z,12.46
2023-02-24T14:56:05.810Z,12.29
2023-02-24T14:58:43.790Z,12.31
2023-02-24T15:01:20.282Z,12.31
2023-02-24T15:03:51.986Z,12.32
2023-02-24T15:06:24.926Z,12.33
2023-02-24T15:08:59.131Z,12.24
2023-02-24T15:11:29.491Z,12.14
2023-02-24T15:14:00.111Z,11.53
2023-02-24T15:16:30.704Z,11.50
2023-02-24T15:19:02.185Z,11.33
2023-02-24T15:21:34.405Z,11.28
2023-02-24T15:24:04.274Z,11.19
2023-02-24T15:26:34.446Z,11.27
2023-02-24T15:29:04.442Z,11.02
2023-02-24T15:31:32.306Z,10.95
2023-02-24T15:34:03.638Z,10.97
2023-02-24T15:36:34.615Z,10.76
2023-02-24T15:39:05.388Z,10.89
2023-02-24T15:41:41.794Z,10.77
2023-02-24T15:44:25.963Z,10.67
2023-02-24T15:46:53.688Z,10.80
2023-02-24T15:49:22.758Z,10.70
2023-02-24T15:51:53.025Z,10.56
2023-02-24T15:54:26.038Z,10.51
2023-02-24T15:56:53.731Z,10.40
2023-02-24T15:59:22.398Z,10.36
2023-02-24T16:01:51.796Z,10.33
2023-02-24T16:04:21.655Z,10.35
2023-02-24T16:06:55.157Z,10.33
2023-02-24T16:09:29.412Z,10.24
2023-02-24T16:11:57.737Z,10.37
2023-02-24T16:14:26.056Z,10.38
2023-02-24T16:16:53.763Z,10.18
2023-02-24T16:19:21.444Z,10.07
2023-02-24T16:21:50.459Z,10.08
2023-02-24T16:24:19.554Z,9.87
2023-02-24T16:26:48.811Z,9.81
2023-02-24T16:29:17.100Z,9.31
2023-02-24T16:31:44.955Z,9.75
2023-02-24T16:34:16.196Z,9.77
2023-02-24T16:36:44.002Z,9.42
2023-02-24T16:39:13.844Z,9.55
2023-02-24T16:41:41.973Z,9.33
2023-02-24T16:44:10.527Z,9.31
2023-02-24T16:46:41.089Z,9.25
2023-02-24T16:49:10.727Z,9.28
2023-02-24T16:51:39.026Z,9.32
2023-02-24T16:54:06.952Z,9.25
2023-02-24T16:56:35.888Z,9.26
2023-02-24T16:59:03.578Z,9.29
2023-02-24T17:01:31.967Z,9.31
2023-02-24T17:03:59.718Z,9.26
2023-02-24T17:06:28.193Z,9.36
2023-02-24T17:08:56.244Z,9.28
2023-02-24T17:11:30.132Z,8.99
2023-02-24T17:13:59.089Z,9.27
2023-02-24T17:16:26.785Z,9.34
2023-02-24T17:18:54.795Z,9.27
2023-02-24T17:21:22.448Z,9.13
2023-02-24T17:23:51.204Z,9.24
2023-02-24T17:26:18.883Z,9.19
2023-02-24T17:28:46.715Z,9.10
2023-02-24T17:31:15.717Z,9.07
2023-02-24T17:33:43.386Z,9.07
2023-02-24T17:36:11.213Z,8.98
2023-02-24T17:38:38.925Z,8.85
2023-02-24T17:41:06.497Z,8.87
2023-02-24T17:43:34.179Z,8.90
2023-02-24T17:46:05.851Z,8.83
2023-02-24T17:48:36.276Z,8.77
2023-02-24T17:51:04.115Z,8.79
2023-02-24T17:53:32.208Z,8.80
2023-02-24T17:56:03.931Z,8.77
2023-02-24T17:58:31.775Z,8.84
2023-02-24T18:01:01.765Z,8.73
2023-02-24T18:03:29.672Z,8.71
2023-02-24T18:06:03.546Z,8.82
2023-02-24T18:08:33.327Z,8.71
2023-02-24T18:11:01.280Z,8.58
2023-02-24T18:13:30.344Z,8.73
2023-02-24T18:15:58.406Z,8.58
2023-02-24T18:18:27.080Z,8.25
2023-02-24T18:20:58.516Z,8.12
2023-02-24T18:23:27.701Z,8.00
2023-02-24T18:25:55.360Z,8.18
2023-02-24T18:28:23.021Z,7.87
2023-02-24T18:30:50.697Z,7.85
2023-02-24T18:33:18.552Z,7.77
2023-02-24T18:35:46.334Z,7.68
2023-02-24T18:38:13.946Z,7.59
2023-02-24T18:40:42.895Z,7.62
2023-02-24T18:43:10.484Z,7.47
2023-02-24T18:45:38.134Z,7.38
2023-02-24T18:48:06.787Z,7.24
2023-02-24T18:50:34.413Z,7.24
2023-02-24T18:53:02.075Z,7.10
2023-02-24T18:55:29.842Z,7.06
2023-02-24T18:57:58.871Z,6.92
2023-02-24T19:00:26.699Z,6.96
2023-02-24T19:02:54.358Z,6.96
2023-02-24T19:05:22.096Z,6.81
2023-02-24T19:07:49.672Z,6.82
2023-02-24T19:10:17.988Z,6.69
2023-02-24T19:12:46.978Z,6.64
2023-02-24T19:15:17.644Z,6.44
2023-02-24T19:17:45.591Z,6.41
2023-02-24T19:20:14.768Z,5.88
2023-02-24T19:22:42.514Z,5.89
2023-02-24T19:25:10.239Z,5.86
2023-02-24T19:27:37.804Z,5.89
2023-02-24T19:30:06.433Z,5.94
2023-02-24T19:32:35.594Z,5.94
2023-02-24T19:35:03.305Z,5.97
2023-02-24T19:37:30.959Z,6.07
2023-02-24T19:39:58.569Z,5.90
2023-02-24T19:42:26.459Z,5.88
2023-02-24T19:44:54.149Z,5.99
2023-02-24T19:47:21.766Z,5.95
2023-02-24T19:49:50.837Z,5.99
2023-02-24T19:52:18.483Z,5.98
2023-02-24T19:54:46.168Z,5.89
2023-02-24T19:57:13.791Z,5.89
2023-02-24T19:59:41.405Z,5.90
2023-02-24T20:02:10.694Z,5.95
2023-02-24T20:04:38.346Z,6.00
2023-02-24T20:07:07.501Z,6.11
2023-02-24T20:09:35.225Z,6.12
2023-02-24T20:12:02.946Z,6.16
2023-02-24T20:14:30.995Z,6.09
2023-02-24T20:16:58.659Z,6.12
2023-02-24T20:19:26.375Z,6.00
2023-02-24T20:21:54.036Z,6.01
2023-02-24T20:24:22.999Z,6.02
2023-02-24T20:26:51.198Z,6.05
2023-02-24T20:29:20.809Z,6.02
2023-02-24T20:31:49.157Z,6.06
2023-02-24T20:34:17.778Z,6.16
2023-02-24T20:36:45.561Z,6.13
2023-02-24T20:39:13.344Z,6.14
2023-02-24T20:41:42.410Z,5.92
2023-02-24T20:44:10.719Z,5.97
2023-02-24T20:46:38.852Z,6.01
2023-02-24T20:49:09.024Z,6.02
2023-02-24T20:51:38.148Z,6.03
2023-02-24T20:54:12.675Z,6.04
2023-02-24T20:56:43.545Z,6.06
2023-02-24T20:59:13.935Z,5.93
2023-02-24T21:01:42.261Z,5.92
2023-02-24T21:04:10.258Z,5.89
2023-02-24T21:06:38.168Z,5.88
2023-02-24T21:09:06.435Z,6.00
2023-02-24T21:11:34.363Z,5.91
2023-02-24T21:14:04.131Z,5.95
2023-02-24T21:16:31.765Z,5.96
2023-02-24T21:18:59.367Z,5.99
2023-02-24T21:21:27.702Z,5.93
2023-02-24T21:23:56.162Z,5.90
2023-02-24T21:26:26.650Z,5.85
2023-02-24T21:28:57.630Z,5.78
2023-02-24T21:31:27.767Z,5.87
2023-02-24T21:33:56.219Z,5.85
2023-02-24T21:36:25.693Z,5.85
2023-02-24T21:38:54.375Z,5.96
2023-02-24T21:41:22.409Z,5.93
2023-02-24T21:43:54.594Z,5.91
2023-02-24T21:46:22.825Z,5.96
2023-02-24T21:48:56.128Z,5.94
2023-02-24T21:51:24.782Z,5.95
2023-02-24T21:53:54.840Z,5.86
2023-02-24T21:56:25.111Z,5.86
2023-02-24T21:58:54.873Z,5.86
2023-02-24T22:01:24.775Z,5.78
2023-02-24T22:03:55.692Z,5.58
2023-02-24T22:06:24.422Z,5.82
2023-02-24T22:08:52.142Z,5.82
2023-02-24T22:11:20.239Z,5.87
2023-02-24T22:13:48.460Z,5.90
2023-02-24T22:16:18.975Z,5.91
2023-02-24T22:18:47.412Z,5.88
2023-02-24T22:21:18.691Z,5.68
2023-02-24T22:23:47.536Z,5.86
2023-02-24T22:26:16.630Z,5.78
2023-02-24T22:28:46.619Z,5.89
2023-02-24T22:31:16.247Z,5.84
2023-02-24T22:33:44.296Z,5.83
2023-02-24T22:36:14.072Z,5.87
2023-02-24T22:38:45.524Z,5.77
2023-02-24T22:41:14.876Z,5.82
2023-02-24T22:43:42.562Z,5.77
2023-02-24T22:46:14.645Z,5.81
2023-02-24T22:48:42.458Z,5.81
2023-02-24T22:51:11.507Z,5.69
2023-02-24T22:53:40.845Z,5.58
2023-02-24T22:56:13.385Z,5.66
2023-02-24T22:58:41.744Z,5.66
2023-02-24T23:01:10.630Z,5.74
2023-02-24T23:03:39.965Z,5.77
2023-02-24T23:06:09.817Z,5.73
2023-02-24T23:08:39.006Z,5.62
2023-02-24T23:11:08.911Z,5.33
2023-02-24T23:13:38.257Z,5.55
2023-02-24T23:16:07.960Z,5.43
2023-02-24T23:18:36.829Z,5.38
2023-02-24T23:21:06.876Z,5.21
2023-02-24T23:23:34.900Z,5.08
2023-02-24T23:26:02.706Z,5.21
2023-02-24T23:28:30.424Z,5.16
2023-02-24T23:30:59.415Z,4.75
2023-02-24T23:33:28.090Z,5.07
2023-02-24T23:35:55.980Z,5.09
2023-02-24T23:38:23.602Z,5.02
2023-02-24T23:40:51.830Z,5.02
2023-02-24T23:43:19.628Z,4.96
2023-02-24T23:45:47.334Z,4.97
2023-02-24T23:48:16.337Z,4.99
2023-02-24T23:50:45.812Z,4.83
2023-02-24T23:53:13.444Z,4.90
2023-02-24T23:55:41.083Z,4.91
2023-02-24T23:58:09.169Z,4.97
